This is the latest recevied weather packets stored in our database for station/object RK6MF-10. If no packets are shown the sender has not sent any weather packets the latest 10 day(s).
| Time | Temp. | Humidity | Pressure | Rain* | Wind** | Luminosity | Snow |
|---|---|---|---|---|---|---|---|
| 1777820563 | 14.44° C | 39% | 1011.9 hPa | - | - | - | - |
| 1777819663 | 15° C | 38% | 1012.1 hPa | - | - | - | - |
| 1777818763 | 15° C | 38% | 1012.2 hPa | - | - | - | - |
| 1777817863 | 15.56° C | 38% | 1012.2 hPa | - | - | - | - |
| 1777816064 | 18.89° C | 32% | 1012.5 hPa | - | - | - | - |
| 1777815164 | 18.33° C | 31% | 1012.6 hPa | - | - | - | - |
| 1777814264 | 17.78° C | 33% | 1012.7 hPa | - | - | - | - |
| 1777813364 | 17.22° C | 33% | 1012.7 hPa | - | - | - | - |
| 1777812464 | 19.44° C | 32% | 1012.8 hPa | - | - | - | - |
| 1777811563 | 17.78° C | 33% | 1012.9 hPa | - | - | - | - |
| 1777810663 | 16.67° C | 34% | 1013.2 hPa | - | - | - | - |
| 1777809763 | 20° C | 29% | 1013.2 hPa | - | - | - | - |
| 1777808863 | 16.11° C | 35% | 1013.4 hPa | - | - | - | - |
| 1777807963 | 18.33° C | 32% | 1013.5 hPa | - | - | - | - |
| 1777807063 | 16.67° C | 34% | 1013.7 hPa | - | - | - | - |
| 1777806163 | 17.78° C | 32% | 1013.7 hPa | - | - | - | - |
| 1777805263 | 17.78° C | 33% | 1013.9 hPa | - | - | - | - |
| 1777804363 | 17.78° C | 33% | 1014.2 hPa | - | - | - | - |
| 1777803462 | 16.11° C | 34% | 1014.3 hPa | - | - | - | - |
| 1777802561 | 19.44° C | 30% | 1014.3 hPa | - | - | - | - |
| 1777801661 | 16.67° C | 35% | 1014.4 hPa | - | - | - | - |
| 1777800761 | 17.78° C | 34% | 1014.4 hPa | - | - | - | - |
| 1777799861 | 16.67° C | 35% | 1014.5 hPa | - | - | - | - |
| 1777798961 | 15° C | 39% | 1014.5 hPa | - | - | - | - |
| 1777798061 | 15° C | 38% | 1014.7 hPa | - | - | - | - |
* Rain since midnight (hover to see other rain measurements)
** Current wind speed in m/s (hover to see current wind gust speed)